createdAt,value
2023-02-08T00:00:22.846Z,78.428571
2023-02-08T00:05:24.987Z,78.133333
2023-02-08T00:10:27.219Z,78.600000
2023-02-08T00:15:29.456Z,79.000000
2023-02-08T00:20:31.418Z,79.000000
2023-02-08T00:25:33.730Z,79.666667
2023-02-08T00:30:36.048Z,80.600000
2023-02-08T00:35:17.704Z,81.533333
2023-02-08T00:40:20.358Z,82.400000
2023-02-08T00:45:22.314Z,83.000000
2023-02-08T00:50:24.349Z,83.733333
2023-02-08T00:55:26.577Z,85.000000
2023-02-08T01:00:28.697Z,85.666667
2023-02-08T01:05:30.941Z,86.000000
2023-02-08T01:10:33.057Z,86.666667
2023-02-08T01:15:35.185Z,87.000000
2023-02-08T01:20:17.032Z,87.000000
2023-02-08T01:25:19.106Z,87.266667
2023-02-08T01:30:21.238Z,88.000000
2023-02-08T01:35:23.681Z,88.214286
2023-02-08T01:40:25.791Z,89.000000
2023-02-08T01:45:27.878Z,89.000000
2023-02-08T01:50:29.987Z,89.133333
2023-02-08T01:55:32.135Z,89.000000
2023-02-08T02:00:34.369Z,89.466667
2023-02-08T02:05:16.623Z,90.000000
2023-02-08T02:10:18.801Z,90.933333
2023-02-08T02:15:20.985Z,91.666667
2023-02-08T02:20:23.368Z,91.000000
2023-02-08T02:25:25.449Z,91.000000
2023-02-08T02:30:27.650Z,90.200000
2023-02-08T02:35:29.783Z,90.000000
2023-02-08T02:40:31.846Z,90.000000
2023-02-08T02:45:35.205Z,90.000000
2023-02-08T02:50:16.094Z,90.000000
2023-02-08T02:55:18.168Z,90.000000
2023-02-08T03:00:20.428Z,90.066667
2023-02-08T03:05:22.778Z,91.142857
2023-02-08T03:10:24.900Z,92.000000
2023-02-08T03:15:26.997Z,92.000000
2023-02-08T03:20:29.385Z,92.000000
2023-02-08T03:25:31.591Z,92.733333
2023-02-08T03:30:33.775Z,93.000000
2023-02-08T03:35:35.802Z,93.000000
2023-02-08T03:40:17.687Z,93.000000
2023-02-08T03:45:19.889Z,93.800000
2023-02-08T03:50:22.665Z,94.000000
2023-02-08T03:55:24.722Z,94.000000
2023-02-08T04:00:26.747Z,94.000000
2023-02-08T04:05:28.831Z,94.000000
2023-02-08T04:10:30.864Z,94.866667
2023-02-08T04:15:33.077Z,95.000000
2023-02-08T04:20:35.221Z,95.000000
2023-02-08T04:25:17.107Z,95.533333
2023-02-08T04:30:19.278Z,96.000000
2023-02-08T04:35:21.323Z,96.000000
2023-02-08T04:40:23.525Z,96.000000
2023-02-08T04:45:25.546Z,96.000000
2023-02-08T04:50:27.645Z,96.000000
2023-02-08T04:55:29.861Z,96.533333
2023-02-08T05:00:32.062Z,97.000000
2023-02-08T05:05:34.221Z,97.000000
2023-02-08T05:10:16.221Z,97.733333
2023-02-08T05:15:18.490Z,98.000000
2023-02-08T05:20:20.813Z,98.000000
2023-02-08T05:25:22.953Z,98.000000
2023-02-08T05:30:25.325Z,98.000000
2023-02-08T05:35:27.305Z,98.000000
2023-02-08T05:40:29.590Z,98.000000
2023-02-08T05:45:31.920Z,98.000000
2023-02-08T05:50:33.981Z,98.000000
2023-02-08T05:55:16.107Z,98.000000
2023-02-08T06:00:18.244Z,98.000000
2023-02-08T06:05:20.316Z,98.000000
2023-02-08T06:10:22.350Z,98.000000
2023-02-08T06:15:24.407Z,98.000000
2023-02-08T06:20:26.496Z,98.000000
2023-02-08T06:25:28.685Z,98.000000
2023-02-08T06:30:30.793Z,98.000000
2023-02-08T06:35:32.926Z,98.000000
2023-02-08T06:40:35.100Z,98.000000
2023-02-08T06:45:16.953Z,98.000000
2023-02-08T06:50:19.095Z,98.000000
2023-02-08T06:55:21.213Z,98.000000
2023-02-08T07:00:23.355Z,98.000000
2023-02-08T07:05:25.724Z,98.000000
2023-02-08T07:10:27.691Z,98.000000
2023-02-08T07:15:30.168Z,98.000000
2023-02-08T07:20:32.220Z,98.000000
2023-02-08T07:25:34.276Z,98.000000
2023-02-08T07:30:16.253Z,98.000000
2023-02-08T07:35:18.938Z,98.000000
2023-02-08T07:40:21.710Z,98.000000
2023-02-08T07:45:23.859Z,98.000000
2023-02-08T07:50:25.865Z,98.000000
2023-02-08T07:55:27.980Z,98.000000
2023-02-08T08:00:30.004Z,98.000000
2023-02-08T08:05:32.014Z,98.000000
2023-02-08T08:10:34.169Z,98.000000
2023-02-08T08:15:16.195Z,98.000000
2023-02-08T08:20:18.405Z,98.000000
2023-02-08T08:25:20.522Z,98.000000
2023-02-08T08:30:23.324Z,98.000000
2023-02-08T08:35:25.214Z,98.000000
2023-02-08T08:40:27.548Z,98.000000
2023-02-08T08:45:30.127Z,98.000000
2023-02-08T08:50:31.846Z,98.000000
2023-02-08T08:55:33.976Z,98.000000
2023-02-08T09:00:36.542Z,97.800000
2023-02-08T09:05:18.225Z,97.000000
2023-02-08T09:10:20.370Z,97.000000
2023-02-08T09:15:22.434Z,97.000000
2023-02-08T09:20:24.802Z,97.000000
2023-02-08T09:25:26.838Z,97.000000
2023-02-08T09:30:29.018Z,97.000000
2023-02-08T09:35:31.118Z,97.000000
2023-02-08T09:40:33.419Z,97.000000
2023-02-08T09:45:35.437Z,97.000000
2023-02-08T09:50:17.340Z,97.000000
2023-02-08T09:55:19.597Z,97.000000
2023-02-08T10:00:21.752Z,97.000000
2023-02-08T10:05:29.052Z,97.000000
2023-02-08T10:10:31.303Z,97.000000
2023-02-08T10:15:33.388Z,97.000000
2023-02-08T10:20:21.603Z,97.000000
2023-02-08T10:25:23.722Z,97.000000
2023-02-08T10:30:25.803Z,97.000000
2023-02-08T10:35:28.007Z,97.333333
2023-02-08T10:40:30.152Z,97.333333
2023-02-08T10:45:32.285Z,97.066667
2023-02-08T10:50:34.113Z,97.200000
2023-02-08T10:55:15.926Z,98.000000
2023-02-08T11:00:18.006Z,98.000000
2023-02-08T11:05:20.178Z,98.000000
2023-02-08T11:10:22.154Z,98.000000
2023-02-08T11:15:24.314Z,98.000000
2023-02-08T11:20:26.278Z,98.000000
2023-02-08T11:25:28.288Z,98.000000
2023-02-08T11:30:30.468Z,98.000000
2023-02-08T11:35:32.566Z,98.000000
2023-02-08T11:40:34.842Z,98.000000
2023-02-08T11:45:16.603Z,98.000000
2023-02-08T11:50:18.668Z,97.266667
2023-02-08T11:55:20.951Z,97.000000
2023-02-08T12:00:22.730Z,97.000000
2023-02-08T12:05:24.826Z,96.666667
2023-02-08T12:10:27.063Z,96.000000
2023-02-08T12:15:29.727Z,95.466667
2023-02-08T12:20:31.721Z,94.333333
2023-02-08T12:25:33.995Z,93.066667
2023-02-08T12:30:36.175Z,92.066667
2023-02-08T12:35:24.111Z,91.266667
2023-02-08T12:40:19.991Z,90.800000
2023-02-08T12:45:22.156Z,90.000000
2023-02-08T12:50:24.093Z,90.000000
2023-02-08T12:55:26.312Z,90.000000
2023-02-08T13:00:28.354Z,90.000000
2023-02-08T13:05:30.228Z,90.000000
2023-02-08T13:10:32.378Z,90.000000
2023-02-08T13:15:34.687Z,90.000000
2023-02-08T13:20:16.502Z,90.000000
2023-02-08T13:25:18.504Z,89.733333
2023-02-08T13:30:20.688Z,89.000000
2023-02-08T13:35:22.775Z,89.000000
2023-02-08T13:40:24.854Z,89.000000
2023-02-08T13:45:27.012Z,89.000000
2023-02-08T13:50:29.402Z,89.000000
2023-02-08T13:55:31.783Z,89.000000
2023-02-08T14:00:34.897Z,89.000000
2023-02-08T14:05:16.046Z,89.000000
2023-02-08T14:10:18.259Z,89.000000
2023-02-08T14:15:20.773Z,89.000000
2023-02-08T14:20:23.207Z,88.500000
2023-02-08T14:25:25.662Z,87.666667
2023-02-08T14:30:27.874Z,87.000000
2023-02-08T14:35:30.378Z,86.200000
2023-02-08T14:40:32.626Z,86.000000
2023-02-08T14:45:34.733Z,86.000000
2023-02-08T14:50:16.549Z,86.000000
2023-02-08T14:55:18.801Z,87.000000
2023-02-08T15:00:21.072Z,87.000000
2023-02-08T15:05:23.324Z,87.000000
2023-02-08T15:10:25.470Z,87.000000
2023-02-08T15:15:27.704Z,87.000000
2023-02-08T15:20:29.671Z,86.866667
2023-02-08T15:25:31.765Z,87.000000
2023-02-08T15:30:33.908Z,86.400000
2023-02-08T15:35:35.894Z,86.000000
2023-02-08T15:40:18.430Z,86.000000
2023-02-08T15:45:20.948Z,86.000000
2023-02-08T15:50:22.559Z,85.857143
2023-02-08T15:55:24.598Z,85.333333
2023-02-08T16:00:26.777Z,85.000000
2023-02-08T16:05:28.874Z,84.666667
2023-02-08T16:10:30.838Z,84.000000
2023-02-08T16:15:33.047Z,84.000000
2023-02-08T16:20:35.541Z,84.000000
2023-02-08T16:25:16.842Z,84.000000
2023-02-08T16:30:18.896Z,84.000000
2023-02-08T16:35:20.873Z,82.733333
2023-02-08T16:40:22.733Z,80.357143
2023-02-08T16:45:24.871Z,80.600000
2023-02-08T16:50:27.470Z,81.800000
2023-02-08T16:55:29.962Z,81.400000
2023-02-08T17:00:32.112Z,82.000000
2023-02-08T17:05:33.967Z,82.000000
2023-02-08T17:10:36.344Z,81.800000
2023-02-08T17:15:18.044Z,81.000000
2023-02-08T17:20:20.162Z,81.000000
2023-02-08T17:25:22.671Z,80.000000
2023-02-08T17:30:24.909Z,79.800000
2023-02-08T17:35:26.751Z,78.666667
2023-02-08T17:40:29.109Z,78.800000
2023-02-08T17:45:31.395Z,78.666667
2023-02-08T17:50:33.540Z,78.200000
2023-02-08T17:55:35.449Z,78.133333
2023-02-08T18:00:17.211Z,78.000000
2023-02-08T18:05:19.447Z,76.666667
2023-02-08T18:10:21.239Z,75.666667
2023-02-08T18:15:23.167Z,76.000000
2023-02-08T18:20:25.476Z,76.400000
2023-02-08T18:25:27.546Z,75.066667
2023-02-08T18:30:29.677Z,75.266667
2023-02-08T18:35:31.785Z,75.000000
2023-02-08T18:40:34.221Z,75.000000
2023-02-08T18:45:16.085Z,74.266667
2023-02-08T18:50:18.304Z,74.000000
2023-02-08T18:55:20.216Z,74.600000
2023-02-08T19:00:22.409Z,76.214286
2023-02-08T19:05:24.250Z,77.333333
2023-02-08T19:10:26.254Z,78.066667
2023-02-08T19:15:28.426Z,77.866667
2023-02-08T19:20:30.571Z,77.000000
2023-02-08T19:25:35.291Z,77.000000
2023-02-08T19:30:34.968Z,77.066667
2023-02-08T19:35:16.593Z,78.000000
2023-02-08T19:40:18.834Z,76.933333
2023-02-08T19:45:20.857Z,77.000000
2023-02-08T19:50:22.889Z,76.214286
2023-02-08T19:55:25.429Z,76.800000
2023-02-08T20:00:27.210Z,76.666667
2023-02-08T20:05:29.212Z,76.333333
2023-02-08T20:10:31.418Z,75.000000
2023-02-08T20:15:33.518Z,74.933333
2023-02-08T20:20:35.284Z,75.000000
2023-02-08T20:25:17.035Z,75.733333
2023-02-08T20:30:18.934Z,74.600000
2023-02-08T20:35:21.210Z,73.666667
2023-02-08T20:40:22.868Z,73.142857
2023-02-08T20:45:25.036Z,73.000000
2023-02-08T20:50:27.925Z,73.600000
2023-02-08T20:55:29.362Z,74.400000
2023-02-08T21:00:41.229Z,74.466667
2023-02-08T21:05:33.596Z,74.666667
2023-02-08T21:10:35.379Z,76.800000
2023-02-08T21:15:17.212Z,82.266667
2023-02-08T21:20:19.138Z,85.200000
2023-02-08T21:25:21.562Z,87.333333
2023-02-08T21:30:24.037Z,88.785714
2023-02-08T21:35:25.790Z,88.400000
2023-02-08T21:40:27.851Z,86.533333
2023-02-08T21:45:30.740Z,87.400000
2023-02-08T21:50:32.028Z,88.600000
2023-02-08T21:55:34.129Z,89.933333
2023-02-08T22:00:35.999Z,90.133333
2023-02-08T22:05:17.877Z,87.933333
2023-02-08T22:10:19.857Z,81.466667
2023-02-08T22:15:21.755Z,78.266667
2023-02-08T22:20:23.950Z,77.000000
2023-02-08T22:25:25.934Z,73.333333
2023-02-08T22:30:28.125Z,71.066667
2023-02-08T22:35:30.092Z,69.466667
2023-02-08T22:40:31.980Z,68.866667
2023-02-08T22:45:34.213Z,67.333333
2023-02-08T22:50:16.330Z,67.466667
2023-02-08T22:55:18.353Z,66.733333
2023-02-08T23:00:20.218Z,67.733333
2023-02-08T23:05:22.599Z,68.714286
2023-02-08T23:10:24.292Z,68.333333
2023-02-08T23:15:26.650Z,67.933333
2023-02-08T23:20:28.706Z,67.733333
2023-02-08T23:25:30.789Z,68.600000
2023-02-08T23:30:33.018Z,69.333333
2023-02-08T23:35:35.339Z,70.000000
2023-02-08T23:40:17.089Z,68.800000
2023-02-08T23:45:18.931Z,68.666667
2023-02-08T23:50:21.098Z,67.800000
2023-02-08T23:55:23.196Z,65.428571
